createdAt,value
2023-01-27T00:01:46.914Z,12.27
2023-01-27T00:04:32.208Z,10.80
2023-01-27T00:07:17.768Z,11.00
2023-01-27T00:10:03.151Z,10.25
2023-01-27T00:13:07.647Z,10.93
2023-01-27T00:15:53.337Z,9.95
2023-01-27T00:18:38.398Z,10.05
2023-01-27T00:21:42.468Z,10.43
2023-01-27T00:24:36.980Z,10.13
2023-01-27T00:27:22.745Z,10.43
2023-01-27T00:30:09.153Z,10.32
2023-01-27T00:33:13.265Z,11.27
2023-01-27T00:38:44.587Z,10.48
2023-01-27T00:41:30.787Z,11.12
2023-01-27T00:44:16.308Z,9.93
2023-01-27T00:47:01.639Z,10.40
2023-01-27T00:49:46.939Z,10.70
2023-01-27T00:52:32.086Z,10.10
2023-01-27T00:55:18.281Z,11.55
2023-01-27T00:58:04.425Z,12.20
2023-01-27T01:00:49.852Z,12.37
2023-01-27T01:03:36.421Z,12.88
2023-01-27T01:06:21.662Z,11.75
2023-01-27T01:09:10.531Z,10.73
2023-01-27T01:11:56.280Z,13.02
2023-01-27T01:14:41.615Z,13.20
2023-01-27T01:17:26.971Z,13.38
2023-01-27T01:20:13.015Z,13.60
2023-01-27T01:22:58.423Z,11.88
2023-01-27T01:25:43.619Z,11.32
2023-01-27T01:28:28.899Z,11.50
2023-01-27T01:31:19.229Z,9.55
2023-01-27T01:34:04.902Z,8.88
2023-01-27T01:36:50.312Z,7.93
2023-01-27T01:39:35.625Z,7.53
2023-01-27T01:42:21.034Z,8.13
2023-01-27T01:45:31.462Z,7.35
2023-01-27T01:48:36.906Z,7.75
2023-01-27T01:51:26.992Z,7.90
2023-01-27T01:54:19.619Z,6.47
2023-01-27T01:57:05.104Z,6.05
2023-01-27T01:59:53.895Z,6.10
2023-01-27T02:02:40.162Z,5.87
2023-01-27T02:05:31.094Z,5.22
2023-01-27T02:08:40.165Z,5.07
2023-01-27T02:11:25.500Z,4.97
2023-01-27T02:14:13.251Z,5.32
2023-01-27T02:16:58.587Z,6.15
2023-01-27T02:20:34.872Z,4.45
2023-01-27T02:23:38.339Z,4.80
2023-01-27T02:26:34.050Z,4.70
2023-01-27T02:29:19.139Z,4.62
2023-01-27T02:32:04.590Z,4.95
2023-01-27T02:34:50.162Z,4.57
2023-01-27T02:37:36.027Z,4.40
2023-01-27T02:40:21.724Z,4.10
2023-01-27T02:43:06.791Z,4.22
2023-01-27T02:45:52.344Z,4.10
2023-01-27T02:48:37.459Z,4.45
2023-01-27T02:51:24.281Z,5.30
2023-01-27T02:54:09.411Z,5.03
2023-01-27T02:56:54.780Z,5.25
2023-01-27T02:59:40.004Z,5.90
2023-01-27T03:02:30.521Z,6.00
2023-01-27T03:05:16.168Z,5.93
2023-01-27T03:08:01.678Z,6.25
2023-01-27T03:10:51.964Z,5.72
2023-01-27T03:13:37.609Z,5.50
2023-01-27T03:16:41.405Z,7.00
2023-01-27T03:19:29.529Z,6.10
2023-01-27T03:22:15.116Z,7.65
2023-01-27T03:25:00.566Z,8.13
2023-01-27T03:27:46.604Z,7.65
2023-01-27T03:30:31.817Z,7.12
2023-01-27T03:33:17.137Z,7.72
2023-01-27T03:36:21.578Z,8.50
2023-01-27T03:39:25.655Z,7.53
2023-01-27T03:42:29.307Z,7.40
2023-01-27T03:45:33.463Z,8.10
2023-01-27T03:48:20.965Z,9.20
2023-01-27T03:51:08.015Z,8.80
2023-01-27T03:53:53.550Z,7.97
2023-01-27T03:56:38.795Z,9.52
2023-01-27T03:59:24.171Z,8.77
2023-01-27T04:02:28.235Z,9.25
2023-01-27T04:08:17.651Z,8.13
2023-01-27T04:11:22.507Z,9.25
2023-01-27T04:14:08.679Z,10.40
2023-01-27T04:16:56.290Z,9.23
2023-01-27T04:19:41.835Z,8.95
2023-01-27T04:22:27.305Z,9.52
2023-01-27T04:25:13.491Z,9.73
2023-01-27T04:27:59.010Z,9.52
2023-01-27T04:30:44.365Z,9.15
2023-01-27T04:33:29.942Z,9.45
2023-01-27T04:36:15.714Z,10.80
2023-01-27T04:39:00.852Z,9.10
2023-01-27T04:41:46.731Z,9.70
2023-01-27T04:44:31.729Z,10.50
2023-01-27T04:47:17.104Z,9.02
2023-01-27T04:50:02.382Z,9.98
2023-01-27T04:52:47.667Z,9.93
2023-01-27T04:55:33.096Z,8.95
2023-01-27T04:58:18.369Z,9.32
2023-01-27T05:01:04.081Z,9.18
2023-01-27T05:03:49.582Z,9.57
2023-01-27T05:06:34.939Z,9.25
2023-01-27T05:09:20.268Z,8.98
2023-01-27T05:12:05.879Z,9.13
2023-01-27T05:14:51.236Z,10.20
2023-01-27T05:17:36.505Z,9.90
2023-01-27T05:20:21.900Z,10.13
2023-01-27T05:23:26.123Z,10.55
2023-01-27T05:26:17.492Z,10.80
2023-01-27T05:29:02.860Z,9.73
2023-01-27T05:31:48.112Z,10.43
2023-01-27T05:34:33.428Z,9.32
2023-01-27T05:37:18.632Z,10.07
2023-01-27T05:40:04.489Z,10.30
2023-01-27T05:42:51.987Z,10.07
2023-01-27T05:45:37.446Z,10.73
2023-01-27T05:48:22.724Z,10.40
2023-01-27T05:51:08.544Z,10.65
2023-01-27T05:53:55.011Z,10.18
2023-01-27T05:56:40.869Z,11.05
2023-01-27T05:59:26.560Z,10.43
2023-01-27T06:02:12.205Z,10.85
2023-01-27T06:04:57.199Z,10.88
2023-01-27T06:07:43.261Z,11.52
2023-01-27T06:10:28.763Z,12.13
2023-01-27T06:13:14.608Z,11.60
2023-01-27T06:16:02.376Z,12.10
2023-01-27T06:18:48.414Z,11.18
2023-01-27T06:21:33.735Z,11.95
2023-01-27T06:24:19.465Z,11.20
2023-01-27T06:27:04.946Z,11.63
2023-01-27T06:29:51.116Z,10.43
2023-01-27T06:32:37.452Z,10.60
2023-01-27T06:35:23.404Z,11.55
2023-01-27T06:38:12.601Z,10.77
2023-01-27T06:40:58.660Z,11.70
2023-01-27T06:43:44.287Z,12.85
2023-01-27T06:46:30.160Z,11.50
2023-01-27T06:49:15.619Z,11.88
2023-01-27T06:52:01.262Z,11.93
2023-01-27T06:54:46.991Z,13.25
2023-01-27T06:57:32.946Z,12.70
2023-01-27T07:00:19.242Z,14.00
2023-01-27T07:03:06.854Z,12.18
2023-01-27T07:05:53.805Z,12.73
2023-01-27T07:08:40.131Z,12.95
2023-01-27T07:11:26.915Z,12.02
2023-01-27T07:14:17.422Z,13.88
2023-01-27T07:17:08.731Z,12.15
2023-01-27T07:19:55.190Z,12.95
2023-01-27T07:22:40.518Z,12.60
2023-01-27T07:25:29.210Z,13.85
2023-01-27T07:28:15.055Z,11.77
2023-01-27T07:31:02.272Z,12.55
2023-01-27T07:33:48.316Z,12.75
2023-01-27T07:36:33.742Z,12.63
2023-01-27T07:39:19.125Z,12.30
2023-01-27T07:42:05.455Z,12.50
2023-01-27T07:44:51.778Z,11.98
2023-01-27T07:47:37.618Z,12.80
2023-01-27T07:50:23.658Z,12.57
2023-01-27T07:53:11.180Z,12.25
2023-01-27T07:55:59.812Z,13.32
2023-01-27T07:58:45.578Z,13.68
2023-01-27T08:01:37.845Z,13.45
2023-01-27T08:04:24.600Z,12.85
2023-01-27T08:07:09.533Z,11.80
2023-01-27T08:10:01.548Z,13.15
2023-01-27T08:12:47.672Z,12.23
2023-01-27T08:15:33.223Z,12.57
2023-01-27T08:18:18.206Z,11.38
2023-01-27T08:21:05.750Z,10.90
2023-01-27T08:23:53.360Z,12.10
2023-01-27T08:26:39.113Z,10.32
2023-01-27T08:29:24.989Z,10.93
2023-01-27T08:32:15.275Z,10.38
2023-01-27T08:35:00.564Z,10.75
2023-01-27T08:37:51.983Z,10.02
2023-01-27T08:40:38.980Z,11.18
2023-01-27T08:43:24.570Z,10.15
2023-01-27T08:46:10.710Z,10.10
2023-01-27T08:48:56.553Z,9.80
2023-01-27T08:51:43.852Z,9.93
2023-01-27T08:54:29.107Z,9.70
2023-01-27T08:57:14.858Z,8.63
2023-01-27T09:00:01.170Z,10.15
2023-01-27T09:02:47.881Z,9.65
2023-01-27T09:05:35.915Z,9.57
2023-01-27T09:08:21.128Z,10.50
2023-01-27T09:11:16.576Z,9.48
2023-01-27T09:14:03.437Z,12.68
2023-01-27T09:16:50.066Z,9.55
2023-01-27T09:19:37.638Z,9.45
2023-01-27T09:22:22.938Z,8.90
2023-01-27T09:25:11.397Z,10.43
2023-01-27T09:27:58.581Z,11.80
2023-01-27T09:30:46.429Z,9.80
2023-01-27T09:33:32.739Z,25.42
2023-01-27T09:36:20.265Z,11.45
2023-01-27T09:41:15.374Z,11.85
2023-01-27T09:44:04.068Z,11.80
2023-01-27T09:47:08.199Z,11.98
2023-01-27T09:50:19.087Z,11.05
2023-01-27T09:53:15.925Z,10.73
2023-01-27T09:56:13.771Z,11.70
2023-01-27T09:59:30.400Z,11.88
2023-01-27T10:02:46.926Z,10.45
2023-01-27T10:05:36.001Z,11.32
2023-01-27T10:08:30.407Z,10.98
2023-01-27T10:11:26.228Z,11.32
2023-01-27T10:14:20.665Z,11.32
2023-01-27T10:17:25.755Z,10.80
2023-01-27T10:20:18.418Z,11.60
2023-01-27T10:23:25.573Z,11.20
2023-01-27T10:26:31.824Z,11.75
2023-01-27T10:29:55.897Z,10.63
2023-01-27T10:33:03.224Z,9.77
2023-01-27T10:35:59.828Z,10.18
2023-01-27T10:39:03.910Z,11.60
2023-01-27T10:41:55.552Z,11.23
2023-01-27T10:44:55.915Z,9.65
2023-01-27T10:48:06.403Z,9.40
2023-01-27T10:51:05.259Z,10.35
2023-01-27T10:54:01.093Z,11.02
2023-01-27T10:57:09.865Z,11.05
2023-01-27T11:03:28.392Z,11.93
2023-01-27T11:06:22.615Z,11.38
2023-01-27T11:09:12.946Z,11.00
2023-01-27T11:12:02.897Z,12.30
2023-01-27T11:14:50.113Z,10.93
2023-01-27T11:17:39.306Z,11.60
2023-01-27T11:20:31.248Z,10.02
2023-01-27T11:23:18.281Z,10.68
2023-01-27T11:26:16.412Z,10.88
2023-01-27T11:29:13.857Z,10.82
